createdAt,value
2023-02-05T00:01:41.780Z,98154.94
2023-02-05T00:04:09.265Z,98150.06
2023-02-05T00:06:36.787Z,98159.00
2023-02-05T00:09:04.257Z,98151.41
2023-02-05T00:11:33.071Z,98149.41
2023-02-05T00:14:00.566Z,98153.50
2023-02-05T00:16:28.168Z,98138.97
2023-02-05T00:18:55.783Z,98142.53
2023-02-05T00:21:24.574Z,98144.19
2023-02-05T00:23:52.063Z,98148.28
2023-02-05T00:26:19.591Z,98150.28
2023-02-05T00:28:48.447Z,98141.31
2023-02-05T00:31:19.684Z,98144.41
2023-02-05T00:33:48.347Z,98146.13
2023-02-05T00:36:17.041Z,98155.94
2023-02-05T00:38:46.039Z,98152.47
2023-02-05T00:41:14.779Z,98156.75
2023-02-05T00:43:43.037Z,98166.16
2023-02-05T00:46:13.448Z,98160.16
2023-02-05T00:48:42.707Z,98164.84
2023-02-05T00:51:10.623Z,98158.66
2023-02-05T00:53:38.889Z,98158.84
2023-02-05T00:56:06.899Z,98165.72
2023-02-05T00:58:34.585Z,98160.44
2023-02-05T01:01:02.083Z,98150.38
2023-02-05T01:03:31.047Z,98160.97
2023-02-05T01:05:59.427Z,98150.66
2023-02-05T01:08:26.876Z,98152.28
2023-02-05T01:10:54.345Z,98146.06
2023-02-05T01:13:21.824Z,98144.66
2023-02-05T01:15:49.304Z,98144.00
2023-02-05T01:18:17.038Z,98148.84
2023-02-05T01:20:45.906Z,98141.94
2023-02-05T01:23:13.389Z,98149.75
2023-02-05T01:25:40.979Z,98147.41
2023-02-05T01:28:08.525Z,98144.09
2023-02-05T01:30:36.443Z,98144.25
2023-02-05T01:33:04.421Z,98160.88
2023-02-05T01:35:32.532Z,98154.66
2023-02-05T01:38:01.661Z,98155.38
2023-02-05T01:40:29.125Z,98162.25
2023-02-05T01:42:56.608Z,98152.69
2023-02-05T01:45:56.210Z,98147.31
2023-02-05T01:48:28.023Z,98137.75
2023-02-05T01:51:00.390Z,98139.56
2023-02-05T01:53:32.595Z,98138.38
2023-02-05T01:56:02.453Z,98135.59
2023-02-05T01:58:34.732Z,98145.63
2023-02-05T02:01:02.201Z,98137.06
2023-02-05T02:03:32.132Z,98137.16
2023-02-05T02:06:00.259Z,98133.75
2023-02-05T02:08:29.601Z,98125.41
2023-02-05T02:10:59.128Z,98130.25
2023-02-05T02:13:28.917Z,98130.22
2023-02-05T02:15:57.842Z,98123.63
2023-02-05T02:18:28.975Z,98124.72
2023-02-05T02:21:28.348Z,98118.47
2023-02-05T02:24:50.034Z,98115.75
2023-02-05T02:27:41.581Z,98106.56
2023-02-05T02:30:15.637Z,98105.66
2023-02-05T02:32:51.661Z,98106.38
2023-02-05T02:35:26.596Z,98102.75
2023-02-05T02:38:00.924Z,98101.03
2023-02-05T02:40:36.747Z,98097.78
2023-02-05T02:43:10.193Z,98098.78
2023-02-05T02:45:49.968Z,98093.84
2023-02-05T02:48:22.747Z,98090.22
2023-02-05T02:50:53.786Z,98083.50
2023-02-05T02:53:25.054Z,98083.03
2023-02-05T02:55:54.796Z,98080.97
2023-02-05T02:58:26.439Z,98076.16
2023-02-05T03:00:55.078Z,98077.31
2023-02-05T03:03:27.395Z,98070.81
2023-02-05T03:05:58.254Z,98066.06
2023-02-05T03:08:31.257Z,98056.81
2023-02-05T03:11:04.238Z,98061.53
2023-02-05T03:13:33.234Z,98063.22
2023-02-05T03:16:01.432Z,98061.75
2023-02-05T03:18:30.443Z,98063.59
2023-02-05T03:21:01.254Z,98051.84
2023-02-05T03:23:29.646Z,98061.75
2023-02-05T03:25:57.238Z,98056.53
2023-02-05T03:28:24.962Z,98060.81
2023-02-05T03:31:05.166Z,98069.47
2023-02-05T03:33:47.994Z,98064.50
2023-02-05T03:36:21.645Z,98071.47
2023-02-05T03:39:03.545Z,98077.56
2023-02-05T03:41:54.951Z,98079.50
2023-02-05T03:44:49.532Z,98080.31
2023-02-05T03:47:33.635Z,98073.88
2023-02-05T03:50:11.914Z,98068.38
2023-02-05T03:52:44.928Z,98062.19
2023-02-05T03:55:18.283Z,98061.50
2023-02-05T03:57:53.644Z,98061.09
2023-02-05T04:00:21.557Z,98061.91
2023-02-05T04:02:50.356Z,98066.19
2023-02-05T04:05:20.943Z,98054.25
2023-02-05T04:07:48.473Z,98053.91
2023-02-05T04:10:16.524Z,98045.22
2023-02-05T04:12:43.979Z,98056.28
2023-02-05T04:15:11.796Z,98055.22
2023-02-05T04:17:39.310Z,98051.75
2023-02-05T04:20:09.520Z,98049.03
2023-02-05T04:22:37.013Z,98042.00
2023-02-05T04:25:04.794Z,98035.47
2023-02-05T04:27:32.281Z,98052.75
2023-02-05T04:29:59.763Z,98047.78
2023-02-05T04:32:27.317Z,98045.03
2023-02-05T04:34:54.772Z,98047.66
2023-02-05T04:37:24.946Z,98038.19
2023-02-05T04:39:52.489Z,98048.47
2023-02-05T04:42:20.113Z,98040.53
2023-02-05T04:44:47.588Z,98042.84
2023-02-05T04:47:15.076Z,98027.84
2023-02-05T04:49:42.552Z,98036.28
2023-02-05T04:52:10.028Z,98037.97
2023-02-05T04:54:39.307Z,98039.69
2023-02-05T04:57:06.763Z,98042.97
2023-02-05T04:59:34.256Z,98043.53
2023-02-05T05:02:01.775Z,98037.13
2023-02-05T05:04:29.250Z,98039.25
2023-02-05T05:06:56.711Z,98023.22
2023-02-05T05:09:25.276Z,98026.13
2023-02-05T05:11:54.770Z,98031.03
2023-02-05T05:14:22.202Z,98042.59
2023-02-05T05:16:50.239Z,98045.75
2023-02-05T05:19:17.800Z,98047.78
2023-02-05T05:21:45.306Z,98037.16
2023-02-05T05:24:12.811Z,98044.66
2023-02-05T05:26:43.742Z,98041.16
2023-02-05T05:29:13.654Z,98043.22
2023-02-05T05:31:41.509Z,98048.94
2023-02-05T05:34:09.017Z,98047.53
2023-02-05T05:36:36.505Z,98045.94
2023-02-05T05:39:18.090Z,98042.53
2023-02-05T05:42:03.371Z,98050.72
2023-02-05T05:44:32.182Z,98048.31
2023-02-05T05:46:59.682Z,98041.56
2023-02-05T05:49:27.223Z,98042.38
2023-02-05T05:51:54.829Z,98035.63
2023-02-05T05:54:22.306Z,98039.06
2023-02-05T05:56:50.212Z,98045.16
2023-02-05T05:59:17.828Z,98039.16
2023-02-05T06:01:46.686Z,98033.22
2023-02-05T06:04:14.165Z,98043.13
2023-02-05T06:06:42.438Z,98047.59
2023-02-05T06:09:09.987Z,98049.31
2023-02-05T06:11:37.469Z,98034.50
2023-02-05T06:14:05.306Z,98036.19
2023-02-05T06:16:32.812Z,98048.31
2023-02-05T06:19:01.698Z,98046.84
2023-02-05T06:21:29.157Z,98053.22
2023-02-05T06:23:56.626Z,98052.38
2023-02-05T06:26:24.145Z,98050.56
2023-02-05T06:28:51.642Z,98048.94
2023-02-05T06:31:19.209Z,98055.19
2023-02-05T06:33:46.726Z,98062.31
2023-02-05T06:36:15.518Z,98062.19
2023-02-05T06:38:42.977Z,98067.38
2023-02-05T06:41:10.434Z,98062.00
2023-02-05T06:43:37.912Z,98066.53
2023-02-05T06:46:05.702Z,98067.44
2023-02-05T06:48:33.190Z,98068.84
2023-02-05T06:51:00.644Z,98063.47
2023-02-05T06:53:29.479Z,98057.25
2023-02-05T06:55:59.228Z,98056.22
2023-02-05T06:58:26.762Z,98050.81
2023-02-05T07:00:54.219Z,98053.72
2023-02-05T07:03:21.714Z,98054.03
2023-02-05T07:05:49.193Z,98042.31
2023-02-05T07:08:17.032Z,98045.66
2023-02-05T07:10:45.830Z,98041.72
2023-02-05T07:13:13.364Z,98037.41
2023-02-05T07:15:40.831Z,98028.22
2023-02-05T07:18:08.288Z,98027.69
2023-02-05T07:20:35.846Z,98027.63
2023-02-05T07:23:03.301Z,98023.72
2023-02-05T07:25:36.268Z,98027.13
2023-02-05T07:28:05.930Z,98028.13
2023-02-05T07:30:33.698Z,98029.34
2023-02-05T07:33:03.398Z,98031.94
2023-02-05T07:35:31.090Z,98033.38
2023-02-05T07:37:58.595Z,98035.38
2023-02-05T07:40:26.125Z,98039.06
2023-02-05T07:42:53.582Z,98046.28
2023-02-05T07:45:22.371Z,98052.75
2023-02-05T07:47:50.772Z,98049.13
2023-02-05T07:50:18.712Z,98044.03
2023-02-05T07:52:46.184Z,98052.00
2023-02-05T07:55:13.616Z,98053.03
2023-02-05T07:57:41.602Z,98038.53
2023-02-05T08:00:10.637Z,98037.09
2023-02-05T08:02:39.646Z,98033.75
2023-02-05T08:05:08.186Z,98027.44
2023-02-05T08:07:37.285Z,98028.66
2023-02-05T08:10:05.696Z,98025.09
2023-02-05T08:12:33.208Z,98019.72
2023-02-05T08:15:00.669Z,98012.09
2023-02-05T08:17:28.167Z,98014.75
2023-02-05T08:19:56.947Z,98001.94
2023-02-05T08:22:24.454Z,98000.81
2023-02-05T08:24:51.976Z,97990.84
2023-02-05T08:27:19.473Z,97979.00
2023-02-05T08:29:48.208Z,97993.00
2023-02-05T08:32:15.742Z,97991.41
2023-02-05T08:34:43.217Z,97990.53
2023-02-05T08:37:12.285Z,97986.38
2023-02-05T08:39:39.762Z,97979.00
2023-02-05T08:42:07.276Z,97971.91
2023-02-05T08:44:34.738Z,97977.34
2023-02-05T08:47:02.190Z,97971.25
2023-02-05T08:49:29.671Z,97962.63
2023-02-05T08:51:58.110Z,97964.47
2023-02-05T08:54:27.038Z,97958.22
2023-02-05T08:56:54.513Z,97955.41
2023-02-05T08:59:22.391Z,97957.59
2023-02-05T09:01:50.120Z,97957.50
2023-02-05T09:04:19.784Z,97951.94
2023-02-05T09:06:48.020Z,97950.53
2023-02-05T09:09:15.900Z,97935.38
2023-02-05T09:11:46.636Z,97944.63
2023-02-05T09:14:14.790Z,97944.75
2023-02-05T09:16:42.964Z,97942.72
2023-02-05T09:19:10.669Z,97952.03
2023-02-05T09:21:38.104Z,97955.59
2023-02-05T09:24:05.971Z,97945.72
2023-02-05T09:26:33.679Z,97945.94
2023-02-05T09:29:03.694Z,97942.03
2023-02-05T09:31:31.377Z,97937.81
2023-02-05T09:33:58.963Z,97931.00
2023-02-05T09:36:26.655Z,97929.28
2023-02-05T09:39:11.921Z,97931.75
2023-02-05T09:41:48.948Z,97939.34
2023-02-05T09:44:26.544Z,97926.75
2023-02-05T09:47:02.527Z,97930.78
2023-02-05T09:49:35.714Z,97931.00
2023-02-05T09:52:05.986Z,97907.72
2023-02-05T09:54:37.529Z,97916.63
2023-02-05T09:57:09.014Z,97916.72
2023-02-05T09:59:38.505Z,97919.16
2023-02-05T10:02:25.924Z,97917.56
2023-02-05T10:04:54.781Z,97910.66
2023-02-05T10:07:38.243Z,97896.38
2023-02-05T10:10:22.407Z,97905.06
2023-02-05T10:13:16.886Z,97900.44
2023-02-05T10:16:02.784Z,97889.44
2023-02-05T10:18:44.417Z,97883.09
2023-02-05T10:21:28.601Z,97879.84
2023-02-05T10:24:15.481Z,97878.50
2023-02-05T10:26:49.390Z,97874.44
2023-02-05T10:29:28.366Z,97876.63
2023-02-05T10:32:08.754Z,97880.19
2023-02-05T10:34:49.906Z,97885.41
2023-02-05T10:37:19.801Z,97866.13
2023-02-05T10:39:49.048Z,97871.44
2023-02-05T10:42:27.332Z,97878.19
2023-02-05T10:45:04.454Z,97872.28
2023-02-05T10:47:49.391Z,97866.59
2023-02-05T10:50:23.995Z,97860.84
2023-02-05T10:52:51.938Z,97862.38
2023-02-05T10:55:19.714Z,97864.34
2023-02-05T10:57:47.273Z,97859.19
2023-02-05T11:00:17.804Z,97854.66
2023-02-05T11:02:50.415Z,97859.56
2023-02-05T11:05:24.045Z,97842.25
2023-02-05T11:07:55.240Z,97842.44
2023-02-05T11:10:24.772Z,97843.06
2023-02-05T11:12:55.819Z,97852.50
2023-02-05T11:15:26.105Z,97849.50
2023-02-05T11:18:00.042Z,97847.75
2023-02-05T11:20:30.691Z,97848.97
2023-02-05T11:23:10.529Z,97840.22
2023-02-05T11:25:38.047Z,97836.09
2023-02-05T11:28:06.065Z,97846.81
2023-02-05T11:30:50.748Z,97849.44
2023-02-05T11:33:32.295Z,97849.75
2023-02-05T11:36:03.076Z,97845.47
2023-02-05T11:38:39.965Z,97842.03
2023-02-05T11:41:09.162Z,97841.03
2023-02-05T11:43:39.250Z,97829.28
2023-02-05T11:46:10.080Z,97831.94
2023-02-05T11:48:44.246Z,97848.03
2023-02-05T11:51:15.200Z,97839.13
2023-02-05T11:53:51.545Z,97831.75
2023-02-05T11:56:24.955Z,97826.16
2023-02-05T11:59:00.903Z,97826.22
2023-02-05T12:01:32.355Z,97828.25
2023-02-05T12:04:02.927Z,97829.00
2023-02-05T12:06:36.977Z,97823.84
2023-02-05T12:09:05.000Z,97821.78
2023-02-05T12:12:03.948Z,97813.16
2023-02-05T12:14:41.213Z,97811.25
2023-02-05T12:17:26.043Z,97808.16
2023-02-05T12:20:05.243Z,97809.03
2023-02-05T12:22:56.487Z,97807.25
2023-02-05T12:25:29.808Z,97809.78
2023-02-05T12:28:18.541Z,97801.09
2023-02-05T12:30:57.972Z,97803.88
2023-02-05T12:33:43.951Z,97809.06
2023-02-05T12:36:30.105Z,97805.72
2023-02-05T12:39:13.482Z,97798.16
2023-02-05T12:41:50.053Z,97794.94
2023-02-05T12:44:34.609Z,97791.94
2023-02-05T12:47:14.724Z,97788.50
2023-02-05T12:50:07.821Z,97789.72
2023-02-05T12:52:54.443Z,97787.78
2023-02-05T12:55:33.128Z,97787.28
2023-02-05T12:58:04.070Z,97784.19
2023-02-05T13:00:37.286Z,97786.88
2023-02-05T13:03:09.764Z,97789.38
2023-02-05T13:05:41.852Z,97782.38
2023-02-05T13:08:20.080Z,97789.44
2023-02-05T13:10:54.468Z,97780.69
2023-02-05T13:13:31.298Z,97776.97
2023-02-05T13:16:03.937Z,97774.94
2023-02-05T13:18:36.511Z,97771.34
2023-02-05T13:21:25.734Z,97768.94
2023-02-05T13:24:36.146Z,97772.47
2023-02-05T13:27:23.757Z,97763.72
2023-02-05T13:29:53.846Z,97753.47
2023-02-05T13:32:25.169Z,97758.25
2023-02-05T13:34:54.688Z,97753.06
2023-02-05T13:37:42.638Z,97758.06
2023-02-05T13:40:43.701Z,97751.56
2023-02-05T13:43:39.369Z,97751.94
2023-02-05T13:46:37.306Z,97759.69
2023-02-05T13:49:52.092Z,97758.34
2023-02-05T13:52:58.180Z,97742.56
2023-02-05T13:56:04.701Z,97751.59
2023-02-05T13:58:35.003Z,97750.66
2023-02-05T14:01:06.502Z,97758.75
2023-02-05T14:03:38.138Z,97758.44
2023-02-05T14:06:23.843Z,97759.47
2023-02-05T14:08:57.658Z,97763.88
2023-02-05T14:11:26.787Z,97760.97
2023-02-05T14:14:25.960Z,97765.34
2023-02-05T14:16:54.900Z,97775.16
2023-02-05T14:19:25.628Z,97782.59
2023-02-05T14:22:13.602Z,97780.81
2023-02-05T14:24:47.372Z,97785.03
2023-02-05T14:27:48.797Z,97783.47
2023-02-05T14:30:38.583Z,97798.34
2023-02-05T14:33:27.982Z,97798.94
2023-02-05T14:35:57.406Z,97797.84
2023-02-05T14:38:28.883Z,97794.47
2023-02-05T14:41:06.242Z,97794.84
2023-02-05T14:43:37.275Z,97794.84
2023-02-05T14:46:08.230Z,97793.56
2023-02-05T14:48:42.733Z,97789.69
2023-02-05T14:51:29.136Z,97792.56
2023-02-05T14:53:59.601Z,97796.63
2023-02-05T14:56:33.959Z,97788.63
2023-02-05T14:59:07.224Z,97791.19
2023-02-05T15:01:46.591Z,97793.22
2023-02-05T15:04:39.088Z,97791.91
2023-02-05T15:07:13.767Z,97791.16
2023-02-05T15:09:45.444Z,97790.03
2023-02-05T15:12:32.216Z,97786.19
2023-02-05T15:15:16.991Z,97783.72
2023-02-05T15:17:52.704Z,97786.28
2023-02-05T15:20:33.743Z,97794.84
2023-02-05T15:23:21.965Z,97802.38
2023-02-05T15:25:56.826Z,97794.75
2023-02-05T15:28:33.075Z,97794.59
2023-02-05T15:31:17.961Z,97801.44
2023-02-05T15:33:53.325Z,97812.38
2023-02-05T15:36:27.815Z,97809.97
2023-02-05T15:39:06.753Z,97811.91
2023-02-05T15:41:45.170Z,97811.56
2023-02-05T15:44:22.826Z,97810.97
2023-02-05T15:46:52.496Z,97813.38
2023-02-05T15:49:26.410Z,97813.19
2023-02-05T15:51:53.919Z,97812.28
2023-02-05T15:54:21.936Z,97808.63
2023-02-05T15:56:52.326Z,97803.38
2023-02-05T15:59:24.169Z,97809.31
2023-02-05T16:02:01.760Z,97802.19
2023-02-05T16:04:31.663Z,97808.63
2023-02-05T16:06:59.994Z,97809.06
2023-02-05T16:09:29.109Z,97809.81
2023-02-05T16:11:57.039Z,97812.78
2023-02-05T16:14:26.334Z,97818.59
2023-02-05T16:17:04.109Z,97814.72
2023-02-05T16:19:36.929Z,97810.31
2023-02-05T16:22:18.532Z,97810.66
2023-02-05T16:24:49.571Z,97808.19
2023-02-05T16:27:21.192Z,97808.09
2023-02-05T16:29:53.179Z,97802.97
2023-02-05T16:32:29.104Z,97805.25
2023-02-05T16:34:56.894Z,97806.94
2023-02-05T16:37:31.222Z,97811.00
2023-02-05T16:40:01.447Z,97817.28
2023-02-05T16:42:34.086Z,97810.00
2023-02-05T16:45:18.520Z,97805.59
2023-02-05T16:48:23.207Z,97799.66
2023-02-05T16:50:52.081Z,97807.72
2023-02-05T16:53:24.041Z,97810.59
2023-02-05T16:55:58.142Z,97806.78
2023-02-05T16:58:28.940Z,97808.81
2023-02-05T17:00:59.016Z,97813.72
2023-02-05T17:03:34.302Z,97827.50
2023-02-05T17:06:04.051Z,97835.63
2023-02-05T17:08:34.272Z,97833.78
2023-02-05T17:11:04.477Z,97839.09
2023-02-05T17:13:40.555Z,97836.63
2023-02-05T17:16:35.289Z,97842.78
2023-02-05T17:19:06.324Z,97851.22
2023-02-05T17:21:34.949Z,97852.56
2023-02-05T17:24:05.914Z,97858.91
2023-02-05T17:26:36.126Z,97854.44
2023-02-05T17:29:07.536Z,97865.19
2023-02-05T17:31:38.255Z,97865.81
2023-02-05T17:34:07.566Z,97860.25
2023-02-05T17:36:35.081Z,97857.59
2023-02-05T17:39:02.580Z,97857.84
2023-02-05T17:41:53.900Z,97850.97
2023-02-05T17:44:21.360Z,97856.78
2023-02-05T17:46:48.821Z,97857.22
2023-02-05T17:49:17.601Z,97854.72
2023-02-05T17:51:45.031Z,97850.84
2023-02-05T17:54:14.477Z,97865.19
2023-02-05T17:56:44.274Z,97860.47
2023-02-05T17:59:12.784Z,97858.81
2023-02-05T18:01:40.238Z,97876.31
2023-02-05T18:04:08.860Z,97875.72
2023-02-05T18:06:38.413Z,97880.03
2023-02-05T18:09:06.628Z,97870.47
2023-02-05T18:11:34.433Z,97866.22
2023-02-05T18:14:02.113Z,97878.31
2023-02-05T18:16:29.689Z,97890.47
2023-02-05T18:18:57.216Z,97898.22
2023-02-05T18:21:24.980Z,97898.50
2023-02-05T18:23:53.818Z,97897.69
2023-02-05T18:26:21.822Z,97897.44
2023-02-05T18:28:49.882Z,97889.91
2023-02-05T18:31:17.565Z,97890.22
2023-02-05T18:33:45.140Z,97886.06
2023-02-05T18:36:14.663Z,97895.19
2023-02-05T18:38:43.879Z,97904.47
2023-02-05T18:41:14.601Z,97889.69
2023-02-05T18:43:42.785Z,97887.75
2023-02-05T18:46:12.552Z,97891.63
2023-02-05T18:48:40.963Z,97891.44
2023-02-05T18:51:10.380Z,97893.69
2023-02-05T18:53:39.334Z,97889.41
2023-02-05T18:56:09.469Z,97894.72
2023-02-05T18:58:38.307Z,97903.16
2023-02-05T19:01:10.157Z,97906.75
2023-02-05T19:03:38.811Z,97902.25
2023-02-05T19:06:06.757Z,97900.97
2023-02-05T19:08:34.270Z,97907.63
2023-02-05T19:11:06.800Z,97903.34
2023-02-05T19:13:36.294Z,97910.56
2023-02-05T19:16:07.387Z,97920.16
2023-02-05T19:18:34.961Z,97929.53
2023-02-05T19:21:06.585Z,97933.00
2023-02-05T19:23:34.521Z,97926.28
2023-02-05T19:26:04.081Z,97936.31
2023-02-05T19:28:32.687Z,97922.59
2023-02-05T19:31:03.495Z,97928.19
2023-02-05T19:33:32.874Z,97918.53
2023-02-05T19:36:01.004Z,97915.47
2023-02-05T19:38:29.003Z,97916.31
2023-02-05T19:40:56.483Z,97914.31
2023-02-05T19:43:24.035Z,97924.75
2023-02-05T19:45:51.524Z,97927.16
2023-02-05T19:48:19.025Z,97938.84
2023-02-05T19:50:47.837Z,97934.25
2023-02-05T19:53:16.697Z,97939.41
2023-02-05T19:55:44.176Z,97944.28
2023-02-05T19:58:12.615Z,97950.25
2023-02-05T20:00:40.132Z,97941.41
2023-02-05T20:03:07.608Z,97945.50
2023-02-05T20:05:37.184Z,97951.97
2023-02-05T20:08:06.101Z,97951.19
2023-02-05T20:10:33.853Z,97950.31
2023-02-05T20:13:01.478Z,97959.50
2023-02-05T20:15:28.942Z,97954.47
2023-02-05T20:17:58.446Z,97969.44
2023-02-05T20:20:33.509Z,97972.28
2023-02-05T20:23:01.400Z,97975.69
2023-02-05T20:25:30.239Z,97988.16
2023-02-05T20:27:57.802Z,97988.53
2023-02-05T20:30:43.138Z,97988.13
2023-02-05T20:33:10.730Z,97993.53
2023-02-05T20:35:39.082Z,97998.78
2023-02-05T20:38:06.949Z,97999.91
2023-02-05T20:40:35.988Z,97993.06
2023-02-05T20:43:04.658Z,98001.22
2023-02-05T20:45:33.740Z,97996.19
2023-02-05T20:48:01.351Z,98005.78
2023-02-05T20:50:28.827Z,97992.34
2023-02-05T20:52:56.380Z,98006.28
2023-02-05T20:55:23.856Z,98007.16
2023-02-05T20:57:52.665Z,98012.34
2023-02-05T21:00:22.304Z,98005.72
2023-02-05T21:02:49.770Z,97998.16
2023-02-05T21:05:17.270Z,98006.03
2023-02-05T21:07:44.809Z,98012.00
2023-02-05T21:10:12.281Z,98017.22
2023-02-05T21:12:39.746Z,98027.56
2023-02-05T21:15:09.425Z,98033.31
2023-02-05T21:17:37.319Z,98036.25
2023-02-05T21:20:05.160Z,98036.81
2023-02-05T21:22:32.613Z,98035.31
2023-02-05T21:25:00.101Z,98034.09
2023-02-05T21:27:27.649Z,98038.00
2023-02-05T21:29:55.101Z,98032.91
2023-02-05T21:32:23.939Z,98031.09
2023-02-05T21:34:52.131Z,98027.50
2023-02-05T21:37:19.629Z,98033.44
2023-02-05T21:39:48.046Z,98035.75
2023-02-05T21:42:15.533Z,98032.94
2023-02-05T21:44:44.127Z,98040.44
2023-02-05T21:47:11.602Z,98048.47
2023-02-05T21:49:40.386Z,98041.59
2023-02-05T21:52:07.855Z,98047.75
2023-02-05T21:54:35.302Z,98046.34
2023-02-05T21:57:02.760Z,98040.06
2023-02-05T21:59:30.209Z,98046.41
2023-02-05T22:01:57.748Z,98050.63
2023-02-05T22:04:25.269Z,98062.75
2023-02-05T22:06:54.050Z,98065.25
2023-02-05T22:09:21.690Z,98061.16
2023-02-05T22:11:50.527Z,98060.78
2023-02-05T22:14:18.141Z,98069.78
2023-02-05T22:16:45.732Z,98060.72
2023-02-05T22:19:13.233Z,98048.50
2023-02-05T22:21:42.326Z,98050.28
2023-02-05T22:24:15.022Z,98058.91
2023-02-05T22:26:42.934Z,98070.47
2023-02-05T22:29:13.386Z,98070.66
2023-02-05T22:31:41.081Z,98081.53
2023-02-05T22:34:08.612Z,98082.56
2023-02-05T22:36:36.357Z,98089.81
2023-02-05T22:39:05.485Z,98086.81
2023-02-05T22:41:36.347Z,98087.47
2023-02-05T22:44:05.407Z,98075.47
2023-02-05T22:46:34.728Z,98093.56
2023-02-05T22:49:03.377Z,98089.03
2023-02-05T22:51:32.876Z,98097.59
2023-02-05T22:54:00.625Z,98098.47
2023-02-05T22:56:28.651Z,98101.88
2023-02-05T22:58:57.902Z,98106.28
2023-02-05T23:01:27.893Z,98115.13
2023-02-05T23:03:56.288Z,98118.50
2023-02-05T23:06:26.116Z,98115.50
2023-02-05T23:08:58.915Z,98116.03
2023-02-05T23:11:27.823Z,98119.00
2023-02-05T23:13:57.426Z,98122.56
2023-02-05T23:16:26.889Z,98126.34
2023-02-05T23:18:58.046Z,98120.78
2023-02-05T23:21:27.797Z,98130.56
2023-02-05T23:23:55.374Z,98132.53
2023-02-05T23:26:24.603Z,98133.63
2023-02-05T23:28:53.004Z,98137.44
2023-02-05T23:31:22.687Z,98131.13
2023-02-05T23:33:50.857Z,98131.88
2023-02-05T23:36:18.877Z,98136.44
2023-02-05T23:38:46.420Z,98143.81
2023-02-05T23:41:14.045Z,98146.34
2023-02-05T23:43:41.746Z,98143.13
2023-02-05T23:46:09.586Z,98130.91
2023-02-05T23:48:38.578Z,98141.16
2023-02-05T23:51:06.064Z,98161.28
2023-02-05T23:53:33.529Z,98152.16
2023-02-05T23:56:01.761Z,98156.53
2023-02-05T23:58:29.233Z,98158.31
